createdAt,value
2019-02-14T20:59:56.223Z,73.65
2019-02-14T21:00:36.743Z,74.12
2019-02-14T21:01:17.382Z,74.12
2019-02-14T21:01:57.951Z,74.12
2019-02-14T21:02:38.534Z,74.41
2019-02-14T21:03:19.076Z,74.22
2019-02-14T21:03:59.649Z,73.93
2019-02-14T21:04:40.212Z,74.41
2019-02-14T21:05:20.905Z,74.12
2019-02-14T21:06:01.595Z,74.12
2019-02-14T21:06:42.307Z,74.51
2019-02-14T21:07:22.863Z,74.51
2019-02-14T21:08:03.419Z,74.41
2019-02-14T21:08:43.991Z,74.03
2019-02-14T21:09:24.644Z,74.51
2019-02-14T21:10:05.178Z,74.6
2019-02-14T21:10:45.722Z,74.12
2019-02-14T21:11:26.305Z,74.31
2019-02-14T21:12:06.838Z,74.41
2019-02-14T21:12:47.379Z,74.41
2019-02-14T21:13:27.928Z,74.31
2019-02-14T21:14:08.502Z,74.22
2019-02-14T21:14:49.127Z,73.65
2019-02-14T21:15:29.647Z,73.65
2019-02-14T21:16:10.219Z,74.03
2019-02-14T21:16:50.823Z,73.65
2019-02-14T21:17:31.368Z,73.46
2019-02-14T21:18:11.935Z,73.65
2019-02-14T21:18:52.479Z,73.46
2019-02-14T21:19:33.054Z,73.65
2019-02-14T21:20:13.628Z,73.65
2019-02-14T21:20:54.205Z,74.12
2019-02-14T21:21:34.810Z,74.03
2019-02-14T21:22:18.430Z,74.41
2019-02-14T21:22:55.974Z,74.41
2019-02-14T21:23:36.596Z,74.12
2019-02-14T21:24:17.131Z,73.84
2019-02-14T21:24:57.705Z,73.84
2019-02-14T21:25:38.315Z,73.55
2019-02-14T21:26:18.939Z,74.12
2019-02-14T21:26:59.505Z,73.55
2019-02-14T21:27:40.093Z,74.03
2019-02-14T21:28:20.693Z,73.55
2019-02-14T21:29:01.257Z,73.93
2019-02-14T21:29:41.861Z,74.22
2019-02-14T21:30:22.411Z,73.65
2019-02-14T21:31:02.977Z,73.8
2019-02-14T21:31:43.543Z,73.9
2019-02-14T21:32:24.107Z,73.9
2019-02-14T21:33:04.681Z,74.08
2019-02-14T21:33:45.243Z,73.8
2019-02-14T21:34:25.818Z,73.61
2019-02-14T21:35:06.366Z,73.61
2019-02-14T21:35:46.964Z,73.71
2019-02-14T21:36:27.528Z,74.08
2019-02-14T21:37:08.099Z,74.37
2019-02-14T21:37:48.674Z,74.37
2019-02-14T21:38:29.214Z,74.08
2019-02-14T21:39:09.805Z,74.37
2019-02-14T21:39:50.389Z,74.37
2019-02-14T21:40:30.995Z,74.08
2019-02-14T21:41:11.523Z,74.37
2019-02-14T21:41:52.122Z,74.18
2019-02-14T21:42:33.276Z,74.18
2019-02-14T21:43:13.838Z,73.71
2019-02-14T21:43:54.387Z,74.18
2019-02-14T21:44:34.947Z,73.52
2019-02-14T21:45:15.516Z,73.52
2019-02-14T21:45:56.096Z,73.52
2019-02-14T21:46:36.696Z,73.61
2019-02-14T21:47:17.301Z,74.08
2019-02-14T21:47:57.872Z,73.52
2019-02-14T21:48:38.394Z,74.18
2019-02-14T21:49:18.963Z,73.52
2019-02-14T21:49:59.529Z,73.61
2019-02-14T21:50:40.111Z,73.71
2019-02-14T21:51:20.714Z,74.08
2019-02-14T21:52:01.258Z,74.08
2019-02-14T21:52:41.828Z,74.47
2019-02-14T21:53:22.385Z,74.27
2019-02-14T21:54:02.956Z,74.37
2019-02-14T21:54:43.509Z,74.27
2019-02-14T21:55:24.087Z,74.08
2019-02-14T21:56:04.670Z,74.37
2019-02-14T21:56:45.233Z,74.47
2019-02-14T21:57:25.806Z,74.27
2019-02-14T21:58:06.506Z,74.08
2019-02-14T21:58:46.964Z,74.75
2019-02-14T21:59:27.502Z,74.66
2019-02-14T22:00:08.052Z,74.27
2019-02-14T22:00:48.659Z,74.47
2019-02-14T22:01:29.238Z,74.27
2019-02-14T22:02:09.854Z,74.56
2019-02-14T22:02:50.415Z,74.37
2019-02-14T22:03:31.009Z,74.37
2019-02-14T22:04:11.553Z,74.56
2019-02-14T22:04:52.103Z,74.37
2019-02-14T22:05:32.671Z,74.75
2019-02-14T22:06:13.228Z,74.56
2019-02-14T22:06:53.778Z,74.75
2019-02-14T22:07:35.228Z,74.56
2019-02-14T22:08:14.885Z,74.66
2019-02-14T22:08:55.439Z,74.66
2019-02-14T22:09:35.997Z,74.56
2019-02-14T22:10:16.565Z,74.75
2019-02-14T22:10:57.148Z,74.66
2019-02-14T22:11:37.728Z,74.56
2019-02-14T22:12:37.055Z,74.66
2019-02-14T22:12:58.846Z,74.56
2019-02-14T22:13:39.431Z,74.27
2019-02-14T22:14:19.978Z,74.75
2019-02-14T22:15:00.637Z,74.75
2019-02-14T22:15:41.116Z,74.75
2019-02-14T22:16:21.761Z,74.75
2019-02-14T22:17:02.321Z,74.94
2019-02-14T22:17:42.900Z,74.94
2019-02-14T22:18:23.481Z,74.47
2019-02-14T22:19:04.044Z,74.56
2019-02-14T22:19:44.642Z,74.47
2019-02-14T22:20:25.205Z,74.94
2019-02-14T22:21:05.865Z,74.75
2019-02-14T22:21:46.444Z,74.56
2019-02-14T22:22:27.025Z,74.37
2019-02-14T22:23:07.662Z,74.75
2019-02-14T22:23:48.290Z,74.66
2019-02-14T22:24:28.868Z,74.75
2019-02-14T22:25:09.423Z,74.56
2019-02-14T22:25:49.981Z,74.66
2019-02-14T22:26:30.601Z,74.56
2019-02-14T22:27:11.155Z,74.47
2019-02-14T22:27:51.714Z,74.56
2019-02-14T22:28:32.280Z,74.56
2019-02-14T22:29:12.840Z,74.75
2019-02-14T22:29:53.407Z,74.75
2019-02-14T22:30:34.019Z,74.56
2019-02-14T22:31:14.576Z,74.75
2019-02-14T22:31:55.113Z,74.66
2019-02-14T22:32:35.698Z,74.56
2019-02-14T22:33:16.238Z,74.85
2019-02-14T22:33:56.805Z,74.94
2019-02-14T22:34:37.364Z,74.66
2019-02-14T22:35:17.935Z,74.94
2019-02-14T22:35:58.494Z,75.13
2019-02-14T22:36:39.026Z,74.85
2019-02-14T22:37:19.575Z,74.75
2019-02-14T22:38:00.129Z,74.75
2019-02-14T22:38:40.719Z,74.47
2019-02-14T22:39:21.281Z,74.47
2019-02-14T22:40:01.883Z,74.94
2019-02-14T22:40:42.459Z,75.04
2019-02-14T22:41:23.102Z,74.66
2019-02-14T22:42:03.856Z,75.13
2019-02-14T22:42:47.438Z,75.13
2019-02-14T22:43:24.975Z,74.94
2019-02-14T22:44:05.634Z,75.13
2019-02-14T22:44:46.143Z,74.94
2019-02-14T22:45:26.707Z,74.66
2019-02-14T22:46:07.281Z,74.56
2019-02-14T22:46:47.851Z,74.75
2019-02-14T22:47:28.393Z,74.85
2019-02-14T22:48:08.945Z,75.13
2019-02-14T22:48:49.503Z,74.94
2019-02-14T22:49:30.054Z,74.85
2019-02-14T22:50:10.614Z,74.94
2019-02-14T22:50:51.179Z,75.13
2019-02-14T22:51:31.731Z,74.94
2019-02-14T22:52:12.330Z,75.13
2019-02-14T22:52:52.892Z,75.13
2019-02-14T22:53:33.446Z,75.04
2019-02-14T22:54:13.992Z,74.85
2019-02-14T22:54:54.579Z,75.04
2019-02-14T22:55:35.134Z,74.94
2019-02-14T22:56:15.699Z,75.04
2019-02-14T22:56:56.266Z,74.94
2019-02-14T22:57:36.853Z,74.94
2019-02-14T22:58:17.415Z,75.04
2019-02-14T22:58:57.979Z,74.94
2019-02-14T22:59:38.570Z,75.04
2019-02-14T23:00:19.202Z,75.13
2019-02-14T23:01:00.100Z,74.52
2019-02-14T23:01:40.403Z,75.04
2019-02-14T23:02:21.052Z,74.94
2019-02-14T23:03:01.631Z,74.94
2019-02-14T23:03:42.178Z,75.04
2019-02-14T23:04:22.722Z,74.85
2019-02-14T23:05:03.302Z,74.85
2019-02-14T23:05:43.872Z,75.04
2019-02-14T23:06:24.423Z,74.81
2019-02-14T23:07:04.984Z,75.04
2019-02-14T23:07:45.613Z,75
2019-02-14T23:08:26.145Z,74.9
2019-02-14T23:09:06.725Z,75.13
2019-02-14T23:09:47.278Z,74.75
2019-02-14T23:10:27.852Z,74.9
2019-02-14T23:11:08.430Z,75
2019-02-14T23:11:48.971Z,75.23
2019-02-14T23:12:29.541Z,75.85
2019-02-14T23:13:10.102Z,75.57
2019-02-14T23:13:50.689Z,75.76
2019-02-14T23:14:31.253Z,75.67
2019-02-14T23:15:11.824Z,75.67
2019-02-14T23:15:52.392Z,75.47
2019-02-14T23:16:32.979Z,75.67
2019-02-14T23:17:13.543Z,75.47
2019-02-14T23:17:54.139Z,75.76
2019-02-14T23:18:34.717Z,75.85
2019-02-14T23:19:15.316Z,75.28
2019-02-14T23:19:55.862Z,75.85
2019-02-14T23:20:36.433Z,75.85
2019-02-14T23:21:17.039Z,75.85
2019-02-14T23:21:57.629Z,75.76
2019-02-14T23:22:38.187Z,75.67
2019-02-14T23:23:18.749Z,75.76
2019-02-14T23:23:59.301Z,75.76
2019-02-14T23:24:39.847Z,75.67
2019-02-14T23:25:20.496Z,75.38
2019-02-14T23:26:00.969Z,75.57
2019-02-14T23:26:41.547Z,75.47
2019-02-14T23:27:22.171Z,75.47
2019-02-14T23:28:02.736Z,75.47
2019-02-14T23:28:43.277Z,75.47
2019-02-14T23:29:23.839Z,75.57
2019-02-14T23:30:04.424Z,75.28
2019-02-14T23:30:44.991Z,75.57
2019-02-14T23:31:25.552Z,75.47
2019-02-14T23:32:06.108Z,75.67
2019-02-14T23:32:46.678Z,75.57
2019-02-14T23:33:27.230Z,75.67
2019-02-14T23:34:07.894Z,75.38
2019-02-14T23:34:48.509Z,75.57
2019-02-14T23:35:29.058Z,75.38
2019-02-14T23:36:09.617Z,75.57
2019-02-14T23:36:50.170Z,75.85
2019-02-14T23:37:30.731Z,75.57
2019-02-14T23:38:11.298Z,75.67
2019-02-14T23:38:51.830Z,75.38
2019-02-14T23:39:32.450Z,75.57
2019-02-14T23:40:12.998Z,75.47
2019-02-14T23:40:53.566Z,75.85
2019-02-14T23:41:34.110Z,75.85
2019-02-14T23:42:14.673Z,75.85
2019-02-14T23:43:02.739Z,75.76
2019-02-14T23:43:35.800Z,75.76
2019-02-14T23:44:16.359Z,75.47
2019-02-14T23:44:56.929Z,76.04
2019-02-14T23:45:37.489Z,76.04
2019-02-14T23:46:18.073Z,75.95
2019-02-14T23:46:58.628Z,75.95
2019-02-14T23:47:39.223Z,75.85
2019-02-14T23:48:19.791Z,75.95
2019-02-14T23:49:00.372Z,76.04
2019-02-14T23:49:40.982Z,75.95
2019-02-14T23:50:21.543Z,76.04
2019-02-14T23:51:03.588Z,76.04
2019-02-14T23:51:42.799Z,76.04
2019-02-14T23:52:23.352Z,76.42
2019-02-14T23:53:03.904Z,76.23
2019-02-14T23:53:44.474Z,75.95
2019-02-14T23:54:25.105Z,76.23
2019-02-14T23:55:05.643Z,76.23
2019-02-14T23:55:46.223Z,76.23
2019-02-14T23:56:26.774Z,76.32
2019-02-14T23:57:07.350Z,76.23
2019-02-14T23:57:47.971Z,76.14
2019-02-14T23:58:28.556Z,76.23
2019-02-14T23:59:09.127Z,76.23
2019-02-14T23:59:49.663Z,76.14
